Time;durP1;ratioP1;P1;durP2;ratioP2;P2;SDS_P1;SDS_P2;PMS_P1;PMS_P2;Temp;Humidity;BMP_temperature;BMP_pressure;BME280_temperature;BME280_humidity;BME280_pressure;Samples;Min_cycle;Max_cycle;Signal;HPM_P1;HPM_P2
2023/03/06 19:17:30;;;;;;;2.27;2.07;;;4.00;67.90;;;4.35;58.71;99993.41;5151532;27;21005;-53
2023/03/06 19:19:57;;;;;;;2.83;2.27;;;4.00;69.10;;;5.32;55.37;99992.03;5132938;27;20200;-55
2023/03/06 19:22:24;;;;;;;2.67;2.37;;;4.10;68.90;;;6.07;53.35;99983.16;5132771;27;20222;-56
2023/03/06 19:24:51;;;;;;;4.13;2.63;;;4.40;68.20;;;6.70;51.65;99985.84;5138894;27;20213;-51
2023/03/06 19:27:18;;;;;;;4.20;2.20;;;4.70;67.50;;;7.19;50.70;99975.97;5124241;27;20180;-53
2023/03/06 19:29:45;;;;;;;4.20;2.47;;;5.00;66.70;;;7.55;49.58;99971.84;5131684;27;20660;-56
2023/03/06 19:32:13;;;;;;;4.03;2.20;;;5.20;65.60;;;7.84;48.23;99971.97;5129600;27;20195;-53
2023/03/06 19:34:42;;;;;;;3.20;2.30;;;5.40;65.00;;;8.05;47.75;99966.88;5113199;27;20219;-54
2023/03/06 19:37:09;;;;;;;5.53;2.80;;;5.60;64.10;;;8.22;47.32;99959.66;5110504;28;20265;-53
2023/03/06 19:39:35;;;;;;;2.77;1.97;;;5.70;63.50;;;8.31;46.76;99963.03;5131447;27;20178;-55
2023/03/06 19:42:03;;;;;;;3.17;2.40;;;5.90;62.60;;;8.44;46.50;99953.56;5131574;27;20192;-54
2023/03/06 19:44:30;;;;;;;4.13;2.27;;;6.00;62.50;;;8.60;46.11;99949.97;5133364;27;20218;-53
2023/03/06 19:46:57;;;;;;;3.17;2.13;;;6.10;62.20;;;8.62;45.79;99950.59;5131456;27;20214;-54
2023/03/06 19:49:24;;;;;;;3.37;2.40;;;6.20;61.40;;;8.71;45.83;99946.88;5130435;27;20220;-53
2023/03/06 19:51:53;;;;;;;3.60;2.57;;;6.30;61.50;;;8.82;45.40;99935.91;5131492;27;20192;-54
2023/03/06 19:54:22;;;;;;;7.77;2.27;;;6.40;61.20;;;8.89;45.07;99933.38;5120104;27;20216;-52
2023/03/06 19:56:49;;;;;;;3.60;2.63;;;6.30;60.70;;;8.92;45.06;99933.00;5121527;27;20318;-55
2023/03/06 19:59:16;;;;;;;4.33;2.60;;;6.40;60.70;;;9.00;45.01;99917.97;5132220;27;20211;-54
2023/03/06 20:01:43;;;;;;;2.27;2.07;;;6.50;60.80;;;9.06;44.91;99917.22;5129842;27;20601;-55
2023/03/06 20:04:10;;;;;;;4.03;2.67;;;6.60;60.50;;;9.07;45.06;99918.03;5130633;28;20564;-53
2023/03/06 20:06:37;;;;;;;4.80;2.43;;;6.60;60.20;;;9.12;44.86;99908.63;5130571;27;20191;-56
2023/03/06 20:09:07;;;;;;;3.17;2.87;;;6.60;60.20;;;9.13;44.52;99906.81;5129191;28;20205;-55
2023/03/06 20:11:34;;;;;;;2.63;2.30;;;6.60;60.10;;;9.13;44.50;99897.09;5111370;28;20184;-53
2023/03/06 20:14:05;;;;;;;3.17;2.43;;;6.70;60.00;;;9.07;44.75;99897.88;5124005;28;20218;-54
2023/03/06 20:16:33;;;;;;;3.90;2.23;;;6.70;59.90;;;9.11;44.58;99888.63;5131726;27;20221;-53
2023/03/06 20:19:00;;;;;;;2.60;2.40;;;6.70;59.80;;;9.11;44.62;99899.13;5131761;27;20274;-52
2023/03/06 20:21:30;;;;;;;2.53;2.33;;;6.70;59.90;;;9.20;45.09;99884.88;5126069;27;20198;-51
2023/03/06 20:23:58;;;;;;;2.70;2.30;;;6.70;60.20;;;9.21;44.79;99883.06;5111698;28;20572;-55
2023/03/06 20:26:27;;;;;;;3.00;2.57;;;6.70;60.10;;;9.23;44.51;99875.81;5112509;28;20656;-55
2023/03/06 20:28:57;;;;;;;3.47;2.27;;;6.80;60.20;;;9.32;44.89;99874.69;5098849;28;20196;-53
2023/03/06 20:31:28;;;;;;;3.63;2.80;;;6.80;60.70;;;9.36;44.68;99870.69;5101976;28;20269;-55
2023/03/06 20:33:57;;;;;;;4.00;2.53;;;6.80;60.40;;;9.27;45.11;99871.81;5118878;28;20293;-53
2023/03/06 20:36:27;;;;;;;2.70;2.50;;;6.80;60.40;;;9.14;45.31;99875.13;5098396;28;20711;-55
2023/03/06 20:38:55;;;;;;;2.40;2.20;;;6.80;60.40;;;9.08;45.56;99862.72;5099503;28;20220;-54
2023/03/06 20:41:26;;;;;;;4.77;2.70;;;6.80;61.50;;;9.15;45.47;99860.19;5099665;28;20668;-53
2023/03/06 20:43:53;;;;;;;4.90;2.73;;;6.80;61.00;;;9.10;46.06;99852.88;5099430;28;20287;-52
2023/03/06 20:46:22;;;;;;;3.50;2.93;;;6.80;61.20;;;9.17;45.66;99853.75;5100015;28;20203;-54
2023/03/06 20:48:52;;;;;;;3.87;2.60;;;6.80;61.60;;;9.20;46.34;99837.63;5098469;28;20188;-54
2023/03/06 20:51:22;;;;;;;3.27;2.97;;;6.80;61.90;;;9.26;46.35;99843.94;5099449;28;20219;-53
2023/03/06 20:53:54;;;;;;;2.43;2.23;;;6.90;62.30;;;9.30;46.33;99818.91;5096126;28;20703;-51
2023/03/06 20:56:25;;;;;;;2.80;2.60;;;6.80;62.40;;;9.30;46.60;99821.53;5098185;28;20208;-53
2023/03/06 20:58:56;;;;;;;3.43;2.67;;;6.90;62.90;;;9.29;46.90;99812.88;5097650;28;20203;-53
2023/03/06 21:01:26;;;;;;;5.53;2.73;;;6.80;63.50;;;9.28;47.22;99806.00;5097282;28;20185;-55
2023/03/06 21:03:56;;;;;;;3.40;3.10;;;6.90;63.80;;;9.29;47.54;99805.00;5097600;28;20208;-54
2023/03/06 21:06:24;;;;;;;3.77;2.90;;;6.90;64.60;;;9.34;47.72;99799.97;5112617;28;20682;-51
2023/03/06 21:08:51;;;;;;;3.30;3.00;;;6.90;65.10;;;9.31;48.37;99789.03;5118423;28;20218;-53
2023/03/06 21:11:18;;;;;;;5.20;3.27;;;6.80;66.30;;;9.20;49.16;99789.56;5118530;28;20286;-52
2023/03/06 21:13:45;;;;;;;3.20;2.90;;;6.80;67.00;;;9.21;49.19;99797.25;5127553;27;20211;-53
2023/03/06 21:16:17;;;;;;;4.00;3.40;;;6.80;67.00;;;9.27;49.06;99793.06;5123048;27;20718;-53
2023/03/06 21:18:45;;;;;;;3.90;3.10;;;6.80;67.60;;;9.19;50.08;99788.75;5115732;28;20203;-53
2023/03/06 21:21:15;;;;;;;3.67;3.37;;;6.80;68.70;;;9.08;50.33;99784.00;5101413;28;20657;-55
2023/03/06 21:23:42;;;;;;;3.40;3.00;;;6.80;68.70;;;9.13;49.99;99765.09;5096161;27;20231;-53
2023/03/06 21:26:11;;;;;;;3.50;3.20;;;6.80;68.70;;;9.14;50.23;99764.88;5096739;28;20188;-53
2023/03/06 21:28:38;;;;;;;4.13;3.70;;;6.80;69.20;;;8.98;51.41;99759.91;5097155;28;20196;-53
2023/03/06 21:31:08;;;;;;;4.60;3.77;;;6.70;70.20;;;8.94;52.03;99755.22;5097082;28;20238;-53
2023/03/06 21:33:37;;;;;;;5.43;4.73;;;6.60;71.60;;;8.91;52.42;99737.22;5096346;28;20200;-53
2023/03/06 21:36:05;;;;;;;5.37;4.87;;;6.60;71.60;;;8.80;53.63;99735.91;5096702;28;20230;-55
2023/03/06 21:38:33;;;;;;;5.97;5.07;;;6.50;72.90;;;8.79;53.49;99726.41;5096611;28;20191;-52
2023/03/06 21:41:07;;;;;;;6.20;5.57;;;6.50;73.00;;;8.76;54.07;99726.78;5097605;28;20177;-55
2023/03/06 21:43:34;;;;;;;6.07;5.47;;;6.50;73.80;;;8.64;54.55;99712.56;5096365;27;20614;-52
2023/03/06 21:46:01;;;;;;;6.17;5.57;;;6.50;75.00;;;8.62;54.96;99701.44;5097653;28;20220;-51
2023/03/06 21:48:28;;;;;;;7.10;6.40;;;6.40;74.90;;;8.56;55.67;99708.22;5096744;28;20199;-54
2023/03/06 21:51:09;;;;;;;6.67;6.07;;;6.30;76.30;;;8.49;56.06;99690.81;5096851;28;20202;-54
2023/03/06 21:53:37;;;;;;;9.00;6.87;;;6.30;76.80;;;8.50;56.36;99689.81;5096528;28;20652;-53
2023/03/06 21:56:05;;;;;;;7.80;7.00;;;6.30;77.10;;;8.51;56.52;99675.72;5096664;28;20199;-54
2023/03/06 21:58:32;;;;;;;9.80;7.83;;;6.20;77.70;;;8.40;57.25;99678.81;5096415;28;20556;-54
2023/03/06 22:00:59;;;;;;;10.73;8.53;;;6.20;78.70;;;8.23;58.47;99669.53;5095414;28;20196;-52
2023/03/06 22:03:30;;;;;;;9.27;8.13;;;6.10;79.60;;;8.22;58.37;99665.31;5113789;28;20224;-53
2023/03/06 22:06:09;;;;;;;11.83;8.83;;;6.10;79.60;;;8.25;58.45;99659.69;5116544;28;20184;-52
2023/03/06 22:08:36;;;;;;;11.30;8.67;;;6.10;80.00;;;8.27;58.30;99652.50;5117245;28;20632;-53
2023/03/06 22:11:08;;;;;;;10.90;9.07;;;6.10;80.20;;;8.24;58.47;99637.09;5116871;28;20278;-55
2023/03/06 22:13:35;;;;;;;13.30;10.57;;;6.00;80.50;;;8.13;59.18;99626.09;5115960;28;20216;-53
2023/03/06 22:16:04;;;;;;;12.17;9.97;;;6.00;80.80;;;8.19;59.10;99633.25;5118782;28;20208;-55
2023/03/06 22:18:31;;;;;;;14.87;12.13;;;6.00;81.00;;;8.07;59.58;99619.00;5126134;28;20188;-55
2023/03/06 22:20:59;;;;;;;13.83;11.50;;;6.00;81.70;;;8.03;59.81;99607.25;5127139;28;20346;-54
2023/03/06 22:23:27;;;;;;;15.30;12.37;;;6.00;81.90;;;7.99;59.89;99615.66;5125956;27;20722;-55
2023/03/06 22:25:54;;;;;;;16.37;13.03;;;5.90;81.90;;;8.14;59.70;99613.81;5127159;28;20523;-53
2023/03/06 22:28:21;;;;;;;17.63;13.10;;;5.90;82.00;;;8.22;59.29;99615.50;5116507;28;20188;-55
2023/03/06 22:30:48;;;;;;;18.07;14.63;;;6.00;82.10;;;8.22;59.55;99607.66;5116629;28;20188;-54
2023/03/06 22:33:15;;;;;;;19.20;15.33;;;5.90;82.90;;;8.30;59.35;99597.06;5115972;28;20238;-52
2023/03/06 22:35:41;;;;;;;19.10;15.00;;;6.00;82.20;;;8.33;59.06;99599.31;5115808;28;20191;-52
2023/03/06 22:38:08;;;;;;;20.60;15.50;;;6.00;82.30;;;8.32;59.25;99590.63;5115480;28;20247;-52
2023/03/06 22:40:37;;;;;;;19.97;15.57;;;6.00;82.40;;;8.34;59.21;99590.47;5115496;28;20188;-53
2023/03/06 22:43:04;;;;;;;21.47;17.80;;;6.00;82.30;;;8.27;59.54;99571.25;5115564;28;20215;-54
2023/03/06 22:45:33;;;;;;;24.40;17.67;;;6.00;82.50;;;8.18;59.74;99560.84;5116037;28;20193;-54
2023/03/06 22:48:00;;;;;;;26.10;19.60;;;6.00;82.80;;;8.12;60.13;99555.56;5116101;28;20181;-52
2023/03/06 22:50:37;;;;;;;27.33;20.63;;;6.00;83.00;;;7.96;60.73;99555.81;5115722;28;20191;-53
2023/03/06 22:53:03;;;;;;;26.57;20.03;;;5.90;83.00;;;8.07;60.35;99545.63;5114506;27;20224;-55
2023/03/06 22:55:33;;;;;;;29.90;21.23;;;6.00;83.00;;;8.19;59.99;99546.75;5115191;28;20207;-53
2023/03/06 22:58:01;;;;;;;27.97;20.17;;;6.00;82.80;;;8.28;59.79;99528.28;5114154;28;20215;-52
2023/03/06 23:00:28;;;;;;;29.00;21.80;;;6.00;83.10;;;8.35;59.59;99539.63;5114960;28;20525;-53
2023/03/06 23:02:55;;;;;;;29.60;21.60;;;6.00;83.00;;;8.49;59.12;99525.63;5114801;28;20273;-53
2023/03/06 23:05:22;;;;;;;30.87;23.03;;;6.10;82.90;;;8.57;58.81;99518.44;5113399;27;20221;-53
2023/03/06 23:07:50;;;;;;;29.37;23.43;;;6.10;83.00;;;8.60;58.92;99523.31;5115498;28;20187;-55
2023/03/06 23:10:18;;;;;;;32.67;23.37;;;6.10;83.00;;;8.62;58.57;99520.47;5115489;28;20205;-52
2023/03/06 23:12:45;;;;;;;33.13;25.30;;;6.10;82.90;;;8.50;59.27;99514.97;5115227;28;20566;-53
2023/03/06 23:15:13;;;;;;;36.60;26.10;;;6.10;83.00;;;8.49;59.08;99509.88;5112309;28;20204;-52
2023/03/06 23:17:40;;;;;;;35.83;25.90;;;6.20;83.20;;;8.49;59.34;99500.22;5095229;28;20598;-53
2023/03/06 23:20:09;;;;;;;33.43;26.07;;;6.20;83.10;;;8.54;59.15;99507.50;5094004;28;20193;-53
2023/03/06 23:22:36;;;;;;;33.10;24.33;;;6.20;83.30;;;8.62;59.24;99486.38;5094218;28;20196;-52
2023/03/06 23:25:04;;;;;;;34.23;25.90;;;6.20;83.30;;;8.68;59.44;99488.22;5094689;28;20200;-53
2023/03/06 23:27:33;;;;;;;38.07;28.10;;;6.20;83.50;;;8.58;59.72;99493.03;5094792;28;20712;-54
2023/03/06 23:30:00;;;;;;;37.20;27.80;;;6.20;83.80;;;8.41;60.50;99484.66;5095137;28;20196;-53
2023/03/06 23:32:31;;;;;;;39.03;29.83;;;6.20;84.30;;;8.25;61.26;99478.84;5093719;28;20210;-54
2023/03/06 23:34:58;;;;;;;37.00;26.70;;;6.10;84.90;;;8.24;61.34;99470.19;5098992;28;20620;-53
2023/03/06 23:37:25;;;;;;;40.77;28.63;;;6.10;84.90;;;8.27;61.55;99471.66;5095218;28;20213;-55
2023/03/06 23:39:52;;;;;;;39.53;29.97;;;6.10;85.30;;;8.31;61.35;99459.75;5095850;28;20218;-51
2023/03/06 23:42:19;;;;;;;38.63;27.80;;;6.10;85.40;;;8.30;61.44;99468.63;5100568;28;20200;-54
2023/03/06 23:44:48;;;;;;;40.30;29.27;;;6.00;85.80;;;8.22;61.93;99460.88;5095170;27;20584;-53
2023/03/06 23:47:16;;;;;;;40.20;30.87;;;6.00;86.00;;;8.23;61.87;99452.00;5095223;28;20547;-53
2023/03/06 23:49:44;;;;;;;39.77;28.93;;;6.00;86.40;;;8.29;61.87;99446.03;5095119;28;20204;-52
2023/03/06 23:52:11;;;;;;;41.07;29.30;;;6.00;86.40;;;8.36;61.59;99452.97;5094753;28;20550;-51
2023/03/06 23:54:38;;;;;;;37.03;28.87;;;6.00;86.50;;;8.39;61.64;99446.53;5101962;28;20231;-52
2023/03/06 23:57:05;;;;;;;40.67;29.93;;;6.00;86.60;;;8.31;61.75;99444.03;5114503;28;20285;-52
2023/03/06 23:59:32;;;;;;;41.07;30.20;;;6.00;86.50;;;8.29;61.77;99436.38;5114060;28;20284;-52
